createdAt,value
2023-01-25T00:00:44.005Z,33.85
2023-01-25T00:03:11.115Z,28.85
2023-01-25T00:05:38.275Z,35.50
2023-01-25T00:08:05.987Z,36.95
2023-01-25T00:10:33.330Z,28.50
2023-01-25T00:13:00.272Z,37.53
2023-01-25T00:15:27.486Z,36.22
2023-01-25T00:17:54.419Z,32.65
2023-01-25T00:20:21.249Z,34.28
2023-01-25T00:22:48.274Z,37.67
2023-01-25T00:25:15.190Z,36.30
2023-01-25T00:27:42.019Z,46.70
2023-01-25T00:30:15.977Z,34.53
2023-01-25T00:33:07.832Z,30.52
2023-01-25T00:35:35.214Z,33.13
2023-01-25T00:38:06.328Z,35.88
2023-01-25T00:40:33.237Z,32.03
2023-01-25T00:43:01.034Z,30.75
2023-01-25T00:45:28.350Z,41.10
2023-01-25T00:47:56.396Z,33.50
2023-01-25T00:50:23.523Z,35.78
2023-01-25T00:52:50.597Z,40.63
2023-01-25T00:55:18.147Z,38.42
2023-01-25T00:57:49.325Z,39.17
2023-01-25T01:00:16.983Z,33.00
2023-01-25T01:02:55.010Z,34.67
2023-01-25T01:05:22.410Z,31.80
2023-01-25T01:07:50.691Z,34.78
2023-01-25T01:10:20.479Z,32.50
2023-01-25T01:12:51.498Z,35.08
2023-01-25T01:15:18.486Z,32.80
2023-01-25T01:17:47.146Z,39.58
2023-01-25T01:20:17.525Z,33.33
2023-01-25T01:23:26.352Z,36.33
2023-01-25T01:28:48.778Z,35.38
2023-01-25T01:31:24.546Z,37.85
2023-01-25T01:33:53.574Z,33.20
2023-01-25T01:36:24.787Z,37.03
2023-01-25T01:38:51.655Z,41.55
2023-01-25T01:41:22.506Z,33.50
2023-01-25T01:43:53.315Z,31.83
2023-01-25T01:46:29.149Z,36.92
2023-01-25T01:49:10.272Z,36.83
2023-01-25T01:51:50.792Z,29.75
2023-01-25T01:54:27.150Z,31.38
2023-01-25T01:57:09.454Z,28.88
2023-01-25T01:59:48.470Z,34.08
2023-01-25T02:02:16.176Z,32.83
2023-01-25T02:04:47.179Z,33.35
2023-01-25T02:07:22.720Z,36.45
2023-01-25T02:09:51.649Z,32.42
2023-01-25T02:12:23.545Z,25.98
2023-01-25T02:14:52.589Z,30.00
2023-01-25T02:17:39.780Z,32.35
2023-01-25T02:20:40.120Z,30.15
2023-01-25T02:23:27.848Z,33.95
2023-01-25T02:25:58.144Z,36.10
2023-01-25T02:28:32.924Z,32.05
2023-01-25T02:30:59.765Z,28.67
2023-01-25T02:36:07.783Z,31.95
2023-01-25T02:38:45.915Z,34.25
2023-01-25T02:41:18.386Z,30.02
2023-01-25T02:43:45.846Z,27.13
2023-01-25T02:46:15.490Z,30.38
2023-01-25T02:48:42.772Z,26.50
2023-01-25T02:51:10.454Z,28.58
2023-01-25T02:53:37.297Z,25.65
2023-01-25T02:56:07.953Z,28.77
2023-01-25T02:58:34.816Z,26.27
2023-01-25T03:01:01.774Z,24.90
2023-01-25T03:03:28.551Z,27.30
2023-01-25T03:06:00.833Z,32.33
2023-01-25T03:08:28.130Z,32.28
2023-01-25T03:10:59.392Z,31.92
2023-01-25T03:13:28.698Z,34.10
2023-01-25T03:16:08.111Z,26.95
2023-01-25T03:18:36.079Z,30.42
2023-01-25T03:21:15.560Z,31.83
2023-01-25T03:23:43.996Z,33.85
2023-01-25T03:26:12.752Z,35.33
2023-01-25T03:28:43.995Z,28.35
2023-01-25T03:31:13.858Z,36.95
2023-01-25T03:33:43.996Z,36.22
2023-01-25T03:36:14.032Z,32.65
2023-01-25T03:38:40.938Z,28.88
2023-01-25T03:41:12.949Z,24.75
2023-01-25T03:43:40.356Z,25.70
2023-01-25T03:46:07.567Z,18.27
2023-01-25T03:48:34.834Z,17.33
2023-01-25T03:51:02.067Z,19.08
2023-01-25T03:53:30.334Z,18.65
2023-01-25T03:56:08.879Z,17.13
2023-01-25T03:58:37.866Z,15.55
2023-01-25T04:01:08.486Z,16.05
2023-01-25T04:03:35.543Z,16.10
2023-01-25T04:06:03.180Z,15.82
2023-01-25T04:08:31.101Z,16.08
2023-01-25T04:11:02.406Z,16.40
2023-01-25T04:13:29.619Z,16.60
2023-01-25T04:15:56.606Z,14.55
2023-01-25T04:18:23.467Z,17.58
2023-01-25T04:21:01.003Z,17.77
2023-01-25T04:23:28.079Z,17.45
2023-01-25T04:26:01.225Z,20.63
2023-01-25T04:28:29.281Z,19.23
2023-01-25T04:31:03.292Z,21.83
2023-01-25T04:33:34.075Z,22.67
2023-01-25T04:36:01.819Z,19.60
2023-01-25T04:38:29.709Z,23.63
2023-01-25T04:40:59.817Z,22.42
2023-01-25T04:43:27.124Z,23.58
2023-01-25T04:45:57.196Z,26.30
2023-01-25T04:48:24.581Z,27.33
2023-01-25T04:50:51.735Z,24.30
2023-01-25T04:53:18.659Z,24.02
2023-01-25T04:55:52.862Z,28.55
2023-01-25T05:01:05.591Z,26.20
2023-01-25T05:03:32.957Z,29.77
2023-01-25T05:05:59.834Z,28.00
2023-01-25T05:08:32.104Z,27.65
2023-01-25T05:10:58.893Z,26.42
2023-01-25T05:13:25.840Z,23.05
2023-01-25T05:15:59.938Z,24.20
2023-01-25T05:18:47.129Z,25.05
2023-01-25T05:21:33.827Z,19.30
2023-01-25T05:24:01.429Z,16.67
2023-01-25T05:26:46.876Z,17.98
2023-01-25T05:29:13.702Z,17.70
2023-01-25T05:31:40.675Z,18.42
2023-01-25T05:34:09.516Z,20.65
2023-01-25T05:36:36.680Z,19.90
2023-01-25T05:39:06.721Z,20.65
2023-01-25T05:41:33.516Z,25.30
2023-01-25T05:44:00.818Z,22.40
2023-01-25T05:46:28.621Z,21.90
2023-01-25T05:48:55.507Z,21.77
2023-01-25T05:51:22.612Z,23.98
2023-01-25T05:53:49.852Z,22.52
2023-01-25T05:56:17.105Z,23.77
2023-01-25T05:58:44.303Z,24.25
2023-01-25T06:01:11.783Z,21.73
2023-01-25T06:03:39.125Z,22.33
2023-01-25T06:06:06.649Z,22.63
2023-01-25T06:08:33.617Z,23.13
2023-01-25T06:11:05.909Z,23.48
2023-01-25T06:13:32.772Z,24.60
2023-01-25T06:15:59.788Z,26.27
2023-01-25T06:18:26.845Z,23.45
2023-01-25T06:20:57.237Z,24.40
2023-01-25T06:23:24.446Z,22.02
2023-01-25T06:25:51.768Z,18.02
2023-01-25T06:28:19.232Z,21.45
2023-01-25T06:30:46.782Z,20.13
2023-01-25T06:33:14.036Z,20.52
2023-01-25T06:35:44.830Z,18.67
2023-01-25T06:38:12.380Z,24.38
2023-01-25T06:40:39.975Z,21.55
2023-01-25T06:43:08.780Z,16.90
2023-01-25T06:45:35.898Z,21.23
2023-01-25T06:48:03.124Z,26.42
2023-01-25T06:50:30.098Z,21.52
2023-01-25T06:52:57.438Z,20.05
2023-01-25T06:55:24.793Z,21.42
2023-01-25T06:57:51.869Z,20.35
2023-01-25T07:00:19.108Z,20.45
2023-01-25T07:02:56.191Z,23.80
2023-01-25T07:05:24.348Z,27.17
2023-01-25T07:07:51.173Z,24.45
2023-01-25T07:10:18.204Z,23.58
2023-01-25T07:12:47.580Z,19.83
2023-01-25T07:15:14.555Z,15.30
2023-01-25T07:17:41.868Z,16.25
2023-01-25T07:20:14.632Z,15.48
2023-01-25T07:22:41.511Z,36.50
2023-01-25T07:25:09.159Z,36.58
2023-01-25T07:27:38.403Z,19.95
2023-01-25T07:30:06.561Z,21.02
2023-01-25T07:32:34.520Z,18.25
2023-01-25T07:35:01.576Z,18.33
2023-01-25T07:37:37.031Z,20.38
2023-01-25T07:40:04.137Z,20.88
2023-01-25T07:42:32.282Z,19.27
2023-01-25T07:44:59.866Z,25.40
2023-01-25T07:47:27.128Z,22.20
2023-01-25T07:49:55.162Z,25.70
2023-01-25T07:52:22.161Z,22.52
2023-01-25T07:54:50.041Z,23.38
2023-01-25T07:57:17.371Z,21.27
2023-01-25T07:59:44.582Z,17.63
2023-01-25T08:02:12.639Z,12.65
2023-01-25T08:04:39.695Z,14.55
2023-01-25T08:07:07.018Z,17.70
2023-01-25T08:09:34.781Z,13.57
2023-01-25T08:12:08.606Z,13.20
2023-01-25T08:14:42.183Z,13.43
2023-01-25T08:17:09.865Z,13.73
2023-01-25T08:19:37.489Z,15.30
2023-01-25T08:22:10.558Z,16.13
2023-01-25T08:24:38.139Z,13.82
2023-01-25T08:27:05.631Z,13.90
2023-01-25T08:29:34.805Z,14.00
2023-01-25T08:32:04.530Z,18.83
2023-01-25T08:34:32.419Z,18.40
2023-01-25T08:36:59.667Z,19.77
2023-01-25T08:39:27.387Z,16.33
2023-01-25T08:41:54.574Z,15.30
2023-01-25T08:44:24.012Z,15.98
2023-01-25T08:46:51.096Z,16.80
2023-01-25T08:49:18.665Z,19.50
2023-01-25T08:51:46.368Z,16.00
2023-01-25T08:54:13.450Z,13.23
2023-01-25T08:56:41.595Z,15.75
2023-01-25T08:59:12.220Z,16.63
2023-01-25T09:01:39.754Z,21.27
2023-01-25T09:04:06.603Z,30.88
2023-01-25T09:06:33.962Z,32.45
2023-01-25T09:09:01.322Z,31.13
2023-01-25T09:11:28.289Z,35.15
2023-01-25T09:13:55.255Z,19.23
2023-01-25T09:16:28.710Z,18.42
2023-01-25T09:18:59.349Z,20.27
2023-01-25T09:21:26.787Z,17.88
2023-01-25T09:24:06.071Z,20.52
2023-01-25T09:26:39.462Z,24.42
2023-01-25T09:29:08.313Z,40.35
2023-01-25T09:31:37.283Z,27.42
2023-01-25T09:34:05.129Z,25.08
2023-01-25T09:36:32.513Z,24.70
2023-01-25T09:39:00.002Z,18.85
2023-01-25T09:41:41.971Z,19.52
2023-01-25T09:44:27.102Z,16.15
2023-01-25T09:46:58.501Z,17.48
2023-01-25T09:49:46.647Z,17.33
2023-01-25T09:52:22.628Z,18.38
2023-01-25T09:54:50.429Z,15.82
2023-01-25T09:57:38.300Z,15.20
2023-01-25T10:00:37.299Z,10.50
2023-01-25T10:03:17.255Z,11.55
2023-01-25T10:05:53.459Z,12.32
2023-01-25T10:08:33.204Z,14.63
2023-01-25T10:11:25.353Z,13.15
2023-01-25T10:13:52.571Z,11.13
2023-01-25T10:16:44.404Z,11.52
2023-01-25T10:19:23.212Z,11.10
2023-01-25T10:22:04.442Z,9.65
2023-01-25T10:24:46.622Z,10.88
2023-01-25T10:27:21.847Z,9.70
2023-01-25T10:29:52.400Z,10.68
2023-01-25T10:32:25.448Z,10.60
2023-01-25T10:34:56.952Z,13.27
2023-01-25T10:37:30.927Z,10.00
2023-01-25T10:40:15.922Z,10.63
2023-01-25T10:42:55.003Z,15.13
2023-01-25T10:45:22.095Z,11.50
2023-01-25T10:47:55.123Z,12.77
2023-01-25T10:50:43.184Z,12.70
2023-01-25T10:53:37.415Z,14.48
2023-01-25T10:56:10.677Z,14.60
2023-01-25T10:58:42.411Z,15.02
2023-01-25T11:01:25.608Z,13.82
2023-01-25T11:03:53.787Z,15.10
2023-01-25T11:06:47.003Z,14.13
2023-01-25T11:09:22.963Z,11.43
2023-01-25T11:12:14.204Z,10.63
2023-01-25T11:14:41.163Z,12.05
2023-01-25T11:17:26.053Z,12.40
2023-01-25T11:20:19.738Z,10.95
2023-01-25T11:22:55.873Z,12.90
2023-01-25T11:25:25.954Z,13.35
2023-01-25T11:28:14.441Z,12.32
2023-01-25T11:30:41.526Z,15.57
2023-01-25T11:37:43.137Z,12.85
2023-01-25T11:40:48.935Z,11.80
2023-01-25T11:43:58.869Z,13.30
2023-01-25T11:46:55.491Z,12.50
2023-01-25T11:49:26.477Z,11.60
2023-01-25T11:52:08.996Z,13.48
2023-01-25T11:54:57.620Z,11.80
2023-01-25T11:57:30.562Z,10.07
2023-01-25T12:00:03.745Z,19.23
2023-01-25T12:02:30.499Z,12.88
2023-01-25T12:05:35.787Z,13.63
2023-01-25T12:08:05.828Z,16.95
2023-01-25T12:10:48.128Z,14.75
2023-01-25T12:13:24.392Z,14.68
2023-01-25T12:15:58.694Z,18.60
2023-01-25T12:19:04.455Z,14.18
2023-01-25T12:21:41.487Z,11.82
2023-01-25T12:24:37.626Z,12.15
2023-01-25T12:27:32.337Z,12.73
2023-01-25T12:30:02.248Z,11.15
2023-01-25T12:32:43.484Z,13.65
2023-01-25T12:35:23.674Z,11.50
2023-01-25T12:37:56.591Z,12.45
2023-01-25T12:40:46.853Z,14.02
2023-01-25T12:43:32.881Z,12.30
2023-01-25T12:46:05.088Z,10.45
2023-01-25T12:48:41.375Z,10.23
2023-01-25T12:51:09.581Z,10.15
2023-01-25T12:53:42.465Z,12.48
2023-01-25T12:56:18.065Z,12.77
2023-01-25T12:58:55.282Z,11.57
2023-01-25T13:01:29.865Z,10.55
2023-01-25T13:04:23.590Z,9.25
2023-01-25T13:07:02.620Z,10.65
2023-01-25T13:09:43.261Z,10.68
2023-01-25T13:12:14.959Z,10.70
2023-01-25T13:14:45.638Z,10.73
2023-01-25T13:17:12.587Z,10.40
2023-01-25T13:19:42.210Z,10.35
2023-01-25T13:22:11.125Z,11.75
2023-01-25T13:25:03.673Z,11.27
2023-01-25T13:27:34.828Z,10.45
2023-01-25T13:30:16.335Z,9.77
2023-01-25T13:33:02.711Z,10.52
2023-01-25T13:35:34.187Z,12.13
2023-01-25T13:38:18.031Z,16.30
2023-01-25T13:40:45.457Z,14.20
2023-01-25T13:43:12.362Z,13.07
2023-01-25T13:45:42.080Z,12.25
2023-01-25T13:48:08.842Z,12.30
2023-01-25T13:50:50.634Z,13.52
2023-01-25T13:53:19.684Z,16.98
2023-01-25T13:55:52.931Z,12.70
2023-01-25T13:58:28.377Z,13.45
2023-01-25T14:00:58.534Z,14.30
2023-01-25T14:03:35.629Z,15.27
2023-01-25T14:06:04.489Z,18.10
2023-01-25T14:08:31.996Z,17.60
2023-01-25T14:10:59.188Z,18.88
2023-01-25T14:13:26.795Z,16.33
2023-01-25T14:15:59.408Z,17.50
2023-01-25T14:18:35.275Z,16.45
2023-01-25T14:21:19.086Z,13.70
2023-01-25T14:23:47.375Z,12.30
2023-01-25T14:26:36.019Z,11.63
2023-01-25T14:29:03.177Z,11.13
2023-01-25T14:31:36.285Z,11.50
2023-01-25T14:34:05.233Z,11.50
2023-01-25T14:36:34.931Z,15.40
2023-01-25T14:39:04.827Z,22.05
2023-01-25T14:41:59.281Z,24.08
2023-01-25T14:44:28.981Z,13.98
2023-01-25T14:47:31.500Z,18.88
2023-01-25T14:50:36.868Z,14.63
2023-01-25T14:53:13.329Z,20.38
2023-01-25T14:55:46.484Z,14.48
2023-01-25T14:58:24.358Z,16.77
2023-01-25T15:01:00.520Z,16.08
2023-01-25T15:03:33.147Z,13.07
2023-01-25T15:06:04.218Z,14.15
2023-01-25T15:08:38.518Z,15.65
2023-01-25T15:11:24.846Z,17.17
2023-01-25T15:14:02.621Z,12.88
2023-01-25T15:16:56.218Z,13.43
2023-01-25T15:19:24.638Z,11.35
2023-01-25T15:21:54.989Z,22.08
2023-01-25T15:24:23.759Z,10.13
2023-01-25T15:26:53.202Z,10.13
2023-01-25T15:29:23.027Z,12.73
2023-01-25T15:31:51.187Z,10.93
2023-01-25T15:34:25.613Z,10.60
2023-01-25T15:36:52.974Z,12.90
2023-01-25T15:39:20.802Z,12.73
2023-01-25T15:41:48.809Z,12.77
2023-01-25T15:44:16.006Z,12.90
2023-01-25T15:46:45.988Z,14.45
2023-01-25T15:49:25.447Z,14.38
2023-01-25T15:51:52.652Z,12.90
2023-01-25T15:54:20.147Z,10.77
2023-01-25T15:56:56.146Z,10.93
2023-01-25T15:59:23.434Z,12.57
2023-01-25T16:01:50.432Z,11.77
2023-01-25T16:04:17.306Z,14.55
2023-01-25T16:06:47.560Z,18.20
2023-01-25T16:09:24.930Z,13.57
2023-01-25T16:11:56.984Z,15.38
2023-01-25T16:14:30.063Z,12.95
2023-01-25T16:17:01.403Z,12.70
2023-01-25T16:19:30.018Z,14.82
2023-01-25T16:21:57.250Z,15.07
2023-01-25T16:24:24.792Z,14.13
2023-01-25T16:26:57.464Z,23.05
2023-01-25T16:29:25.360Z,27.08
2023-01-25T16:31:53.978Z,23.50
2023-01-25T16:34:22.099Z,24.02
2023-01-25T16:36:53.323Z,22.10
2023-01-25T16:39:25.506Z,17.20
2023-01-25T16:41:52.485Z,15.38
2023-01-25T16:44:19.640Z,17.85
2023-01-25T16:46:52.311Z,15.30
2023-01-25T16:49:30.712Z,16.48
2023-01-25T16:52:03.371Z,19.45
2023-01-25T16:54:30.453Z,19.60
2023-01-25T16:57:05.816Z,16.50
2023-01-25T16:59:36.173Z,16.85
2023-01-25T17:02:03.139Z,17.70
2023-01-25T17:04:30.161Z,13.85
2023-01-25T17:06:58.788Z,14.82
2023-01-25T17:09:25.824Z,14.90
2023-01-25T17:11:54.174Z,13.13
2023-01-25T17:14:21.966Z,12.48
2023-01-25T17:16:51.523Z,12.73
2023-01-25T17:19:19.498Z,9.02
2023-01-25T17:21:47.229Z,11.00
2023-01-25T17:24:17.557Z,11.57
2023-01-25T17:26:45.130Z,18.70
2023-01-25T17:29:13.657Z,17.85
2023-01-25T17:31:42.105Z,16.40
2023-01-25T17:34:13.255Z,18.95
2023-01-25T17:36:40.561Z,19.40
2023-01-25T17:39:08.320Z,24.52
2023-01-25T17:41:35.958Z,20.20
2023-01-25T17:44:03.678Z,16.38
2023-01-25T17:46:33.749Z,16.25
2023-01-25T17:49:02.487Z,17.20
2023-01-25T17:51:29.500Z,16.67
2023-01-25T17:53:57.651Z,17.60
2023-01-25T17:56:24.774Z,15.48
2023-01-25T17:58:52.006Z,18.70
2023-01-25T18:01:25.118Z,17.00
2023-01-25T18:03:53.797Z,16.50
2023-01-25T18:06:26.081Z,18.00
2023-01-25T18:08:55.483Z,15.13
2023-01-25T18:11:26.047Z,14.75
2023-01-25T18:13:58.440Z,12.07
2023-01-25T18:16:27.411Z,14.38
2023-01-25T18:18:57.394Z,16.45
2023-01-25T18:21:27.546Z,16.95
2023-01-25T18:23:57.420Z,16.55
2023-01-25T18:26:33.620Z,14.40
2023-01-25T18:29:26.315Z,11.90
2023-01-25T18:31:53.349Z,15.40
2023-01-25T18:34:20.307Z,15.25
2023-01-25T18:36:48.577Z,18.10
2023-01-25T18:39:15.329Z,14.07
2023-01-25T18:41:44.689Z,13.73
2023-01-25T18:44:12.157Z,15.07
2023-01-25T18:46:40.703Z,14.75
2023-01-25T18:49:07.714Z,16.50
2023-01-25T18:51:38.975Z,13.73
2023-01-25T18:54:11.352Z,15.27
2023-01-25T18:56:38.470Z,14.93
2023-01-25T18:59:06.339Z,14.80
2023-01-25T19:01:33.654Z,10.88
2023-01-25T19:04:01.103Z,14.05
2023-01-25T19:06:28.104Z,14.32
2023-01-25T19:08:56.554Z,11.55
2023-01-25T19:11:24.214Z,10.13
2023-01-25T19:13:51.930Z,9.85
2023-01-25T19:16:26.181Z,10.13
2023-01-25T19:18:54.772Z,11.45
2023-01-25T19:21:26.832Z,13.27
2023-01-25T19:23:55.144Z,11.30
2023-01-25T19:26:24.727Z,12.25
2023-01-25T19:28:52.878Z,11.20
2023-01-25T19:31:22.176Z,11.93
2023-01-25T19:34:00.001Z,11.35
2023-01-25T19:36:28.550Z,12.40
2023-01-25T19:38:57.430Z,12.55
2023-01-25T19:41:26.845Z,11.15
2023-01-25T19:43:55.857Z,10.18
2023-01-25T19:46:25.561Z,10.57
2023-01-25T19:48:54.144Z,12.00
2023-01-25T19:51:35.943Z,13.95
2023-01-25T19:54:10.030Z,12.13
2023-01-25T19:56:39.661Z,10.63
2023-01-25T19:59:12.243Z,9.88
2023-01-25T20:04:29.228Z,11.30
2023-01-25T20:09:45.445Z,11.05
2023-01-25T20:15:15.102Z,14.65
2023-01-25T20:20:33.815Z,11.25
2023-01-25T20:32:33.060Z,11.50
2023-01-25T20:37:35.517Z,13.63
2023-01-25T20:40:02.692Z,9.48
2023-01-25T20:42:29.698Z,17.88
2023-01-25T20:50:31.870Z,12.73
2023-01-25T20:52:58.934Z,13.73
2023-01-25T20:57:56.715Z,13.25
2023-01-25T21:08:29.680Z,10.10
2023-01-25T21:13:42.168Z,10.93
2023-01-25T21:22:05.704Z,11.45
2023-01-25T21:25:02.541Z,11.35
2023-01-25T21:28:03.377Z,10.80
2023-01-25T21:30:31.190Z,8.20
2023-01-25T21:38:20.256Z,9.50
2023-01-25T21:40:47.443Z,9.48
2023-01-25T21:46:08.321Z,12.15
2023-01-25T21:48:53.833Z,11.82
2023-01-25T21:51:36.119Z,11.05
2023-01-25T21:54:03.153Z,10.50
2023-01-25T21:57:04.847Z,10.98
2023-01-25T21:59:31.826Z,10.25
2023-01-25T22:04:44.473Z,11.32
2023-01-25T22:07:12.004Z,10.18
2023-01-25T22:09:39.401Z,13.93
2023-01-25T22:12:06.356Z,11.70
2023-01-25T22:14:33.375Z,11.45
2023-01-25T22:17:00.151Z,11.63
2023-01-25T22:19:27.053Z,9.73
2023-01-25T22:21:53.828Z,10.52
2023-01-25T22:24:20.957Z,8.88
2023-01-25T22:29:26.655Z,11.15
2023-01-25T22:35:07.297Z,8.98
2023-01-25T22:40:23.636Z,11.85
2023-01-25T22:42:50.475Z,10.43
2023-01-25T22:45:17.361Z,10.80
2023-01-25T22:47:44.330Z,10.55
2023-01-25T22:52:59.700Z,10.85
2023-01-25T22:57:56.798Z,10.98
2023-01-25T23:00:24.184Z,11.10
2023-01-25T23:02:51.516Z,11.25
2023-01-25T23:05:43.224Z,11.05
2023-01-25T23:08:10.019Z,10.32
2023-01-25T23:10:36.886Z,11.50
2023-01-25T23:13:03.778Z,11.25
2023-01-25T23:15:30.687Z,10.73
2023-01-25T23:18:15.873Z,10.52
2023-01-25T23:20:42.685Z,11.30
2023-01-25T23:28:40.907Z,10.57
2023-01-25T23:34:07.286Z,10.35
2023-01-25T23:39:41.442Z,10.02
2023-01-25T23:42:08.306Z,11.10
2023-01-25T23:44:35.093Z,10.27
2023-01-25T23:47:02.051Z,9.68
2023-01-25T23:49:28.998Z,11.80
2023-01-25T23:54:37.094Z,8.95
2023-01-25T23:57:03.991Z,11.70
2023-01-25T23:59:30.989Z,15.63
